Time;durP1;ratioP1;P1;durP2;ratioP2;P2;SDS_P1;SDS_P2;PMS_P1;PMS_P2;Temp;Humidity;BMP_temperature;BMP_pressure;BME280_temperature;BME280_humidity;BME280_pressure;Samples;Min_cycle;Max_cycle;Signal;HPM_P1;HPM_P2
2022/08/15 00:00:43;;;;;;;65.25;53.05;;;27.70;47.20;;;;;;4955252;28;95785;-54
2022/08/15 00:03:27;;;;;;;67.15;53.15;;;27.60;47.10;;;;;;4949065;28;95565;-53
2022/08/15 00:06:21;;;;;;;65.25;53.25;;;27.70;47.20;;;;;;4945351;28;97111;-52
2022/08/15 00:08:50;;;;;;;65.13;53.20;;;27.70;47.20;;;;;;4924262;28;95569;-54
2022/08/15 00:11:24;;;;;;;65.75;53.35;;;27.70;47.20;;;;;;4946510;28;95338;-52
2022/08/15 00:13:53;;;;;;;65.07;53.10;;;27.70;47.20;;;;;;4963095;28;93948;-53
2022/08/15 00:16:19;;;;;;;65.40;53.08;;;27.60;47.20;;;;;;4956828;28;99140;-54
2022/08/15 00:18:47;;;;;;;65.78;53.00;;;27.70;47.30;;;;;;4950404;28;95671;-51
2022/08/15 00:21:13;;;;;;;67.65;52.88;;;27.70;47.40;;;;;;4957733;28;98978;-53
2022/08/15 00:23:40;;;;;;;65.50;53.30;;;27.70;47.40;;;;;;4960792;28;96001;-54
2022/08/15 00:26:08;;;;;;;66.13;53.00;;;27.70;47.50;;;;;;4958661;28;96385;-52
2022/08/15 00:28:33;;;;;;;65.20;53.13;;;27.70;47.40;;;;;;4958244;28;95175;-55
2022/08/15 00:31:00;;;;;;;65.38;53.25;;;27.60;47.40;;;;;;4960399;28;99078;-53
2022/08/15 00:33:28;;;;;;;65.03;53.22;;;27.70;47.50;;;;;;4954756;28;98462;-51
2022/08/15 00:35:54;;;;;;;67.25;53.53;;;27.60;47.40;;;;;;4960500;28;95121;-54
2022/08/15 00:38:22;;;;;;;65.57;53.22;;;27.60;47.40;;;;;;4955215;28;96456;-54
2022/08/15 00:43:41;;;;;;;64.95;53.35;;;27.60;47.40;;;;;;4963427;28;96494;-55
2022/08/15 00:46:10;;;;;;;65.00;52.88;;;27.70;47.50;;;;;;4959104;28;95702;-53
2022/08/15 00:48:42;;;;;;;65.88;53.05;;;27.60;47.40;;;;;;4956573;28;96007;-53
2022/08/15 00:51:21;;;;;;;65.18;52.65;;;27.60;47.50;;;;;;4956571;28;95379;-55
2022/08/15 00:53:53;;;;;;;64.72;52.95;;;27.60;47.50;;;;;;4959817;28;95660;-53
2022/08/15 00:56:21;;;;;;;65.85;53.15;;;27.60;47.50;;;;;;4955835;28;95622;-53
2022/08/15 00:58:47;;;;;;;66.03;53.33;;;27.60;47.60;;;;;;4961269;28;96049;-53
2022/08/15 01:01:14;;;;;;;64.47;53.17;;;27.60;47.60;;;;;;4955609;28;97039;-53
2022/08/15 01:03:45;;;;;;;64.68;53.08;;;27.60;47.70;;;;;;4956194;28;97749;-54
2022/08/15 01:06:12;;;;;;;66.18;53.25;;;27.60;47.70;;;;;;4956114;28;95292;-55
2022/08/15 01:08:40;;;;;;;64.88;52.97;;;27.60;47.70;;;;;;4957289;28;99526;-54
2022/08/15 01:11:21;;;;;;;65.32;52.90;;;27.60;47.70;;;;;;4961394;28;96332;-52
2022/08/15 01:13:51;;;;;;;65.97;53.13;;;27.60;47.70;;;;;;4955515;28;95296;-50
2022/08/15 01:16:18;;;;;;;65.15;52.85;;;27.60;47.80;;;;;;4958844;28;97644;-54
2022/08/15 01:18:44;;;;;;;65.63;53.40;;;27.60;47.80;;;;;;4950297;28;99933;-52
2022/08/15 01:21:26;;;;;;;66.22;53.72;;;27.60;47.80;;;;;;4948462;28;95991;-54
2022/08/15 01:24:51;;;;;;;64.75;53.00;;;27.60;47.80;;;;;;4958490;28;98747;-50
2022/08/15 01:27:18;;;;;;;65.53;53.35;;;27.60;47.90;;;;;;4910614;28;97677;-51
2022/08/15 01:29:44;;;;;;;65.20;53.08;;;27.50;47.80;;;;;;4919688;28;95822;-52
2022/08/15 01:32:10;;;;;;;66.60;53.45;;;27.50;47.80;;;;;;4929659;28;95236;-54
2022/08/15 01:34:36;;;;;;;65.82;53.15;;;27.50;47.90;;;;;;4947775;28;95079;-53
2022/08/15 01:37:02;;;;;;;67.13;52.92;;;27.50;47.90;;;;;;4951745;28;96118;-52
2022/08/15 01:39:40;;;;;;;65.03;53.10;;;27.50;48.00;;;;;;4951707;28;99238;-55
2022/08/15 01:42:23;;;;;;;65.75;52.83;;;27.50;47.90;;;;;;4945813;28;99325;-55
2022/08/15 01:44:56;;;;;;;64.78;52.95;;;27.50;47.90;;;;;;4953831;28;98334;-54
2022/08/15 01:47:57;;;;;;;64.38;52.97;;;27.50;48.00;;;;;;4948848;28;98926;-54
2022/08/15 01:50:26;;;;;;;63.85;52.72;;;27.50;47.90;;;;;;4947612;28;96429;-52
2022/08/15 01:53:02;;;;;;;64.95;53.05;;;27.50;48.00;;;;;;4947044;28;97067;-54
2022/08/15 01:55:44;;;;;;;64.93;52.80;;;27.50;48.00;;;;;;4956088;28;94916;-52
2022/08/15 01:58:09;;;;;;;65.45;53.10;;;27.50;48.00;;;;;;4951522;28;95937;-55
2022/08/15 02:00:37;;;;;;;64.57;53.15;;;27.50;48.10;;;;;;4950313;28;95790;-53
2022/08/15 02:03:02;;;;;;;64.40;52.90;;;27.50;48.10;;;;;;4952226;28;97393;-52
2022/08/15 02:05:29;;;;;;;65.20;53.00;;;27.50;48.10;;;;;;4954860;28;95147;-54
2022/08/15 02:07:54;;;;;;;65.65;53.05;;;27.50;48.10;;;;;;4958989;28;97879;-51
2022/08/15 02:10:21;;;;;;;64.25;52.78;;;27.50;48.20;;;;;;4952572;28;97516;-53
2022/08/15 02:12:48;;;;;;;65.18;52.78;;;27.50;48.10;;;;;;4949686;28;95971;-52
2022/08/15 02:15:19;;;;;;;64.57;53.22;;;27.50;48.20;;;;;;4948897;28;95230;-54
2022/08/15 02:17:45;;;;;;;65.57;52.97;;;27.50;48.20;;;;;;4952070;28;95690;-55
2022/08/15 02:20:13;;;;;;;65.50;53.08;;;27.40;48.20;;;;;;4947999;28;95289;-52
2022/08/15 02:22:39;;;;;;;65.22;52.92;;;27.40;48.20;;;;;;4948070;28;95114;-52
2022/08/15 02:25:07;;;;;;;65.30;53.03;;;27.40;48.20;;;;;;4952973;28;95226;-52
2022/08/15 02:27:35;;;;;;;65.50;52.85;;;27.50;48.30;;;;;;4950052;28;101655;-54
2022/08/15 02:30:08;;;;;;;64.65;53.10;;;27.40;48.30;;;;;;4948387;28;99819;-54
2022/08/15 02:32:36;;;;;;;65.00;52.97;;;27.40;48.30;;;;;;4949291;28;95402;-53
2022/08/15 02:35:04;;;;;;;65.43;53.10;;;27.40;48.30;;;;;;4944978;28;99678;-50
2022/08/15 02:37:30;;;;;;;64.80;52.92;;;27.40;48.40;;;;;;4954533;28;95488;-53
2022/08/15 02:39:55;;;;;;;64.68;53.15;;;27.40;48.40;;;;;;4956505;28;97241;-52
2022/08/15 02:42:21;;;;;;;65.13;53.30;;;27.40;48.30;;;;;;4955852;28;95804;-51
2022/08/15 02:44:49;;;;;;;65.53;53.28;;;27.40;48.40;;;;;;4956362;28;94166;-54
2022/08/15 02:47:17;;;;;;;64.72;52.83;;;27.40;48.40;;;;;;4951679;28;95376;-54
2022/08/15 02:49:43;;;;;;;64.75;52.80;;;27.40;48.40;;;;;;4943166;28;95211;-53
2022/08/15 02:52:10;;;;;;;64.72;52.90;;;27.40;48.40;;;;;;4952199;28;98969;-55
2022/08/15 02:54:36;;;;;;;64.25;52.83;;;27.40;48.40;;;;;;4958787;28;95427;-54
2022/08/15 02:57:02;;;;;;;64.13;52.88;;;27.40;48.50;;;;;;4947315;28;95804;-51
2022/08/15 02:59:28;;;;;;;64.45;53.08;;;27.40;48.60;;;;;;4940858;28;99089;-52
2022/08/15 03:01:56;;;;;;;64.90;53.35;;;27.40;48.60;;;;;;4949619;28;95427;-53
2022/08/15 03:04:23;;;;;;;64.78;52.85;;;27.40;48.60;;;;;;4950800;28;94921;-54
2022/08/15 03:06:53;;;;;;;65.38;53.17;;;27.30;48.50;;;;;;4948320;28;95319;-55
2022/08/15 03:09:20;;;;;;;65.72;53.20;;;27.40;48.60;;;;;;4944831;28;94160;-50
2022/08/15 03:11:46;;;;;;;64.65;52.88;;;27.40;48.60;;;;;;4951476;28;95302;-55
2022/08/15 03:14:16;;;;;;;65.25;52.95;;;27.40;48.60;;;;;;4952853;28;95868;-51
2022/08/15 03:16:45;;;;;;;65.10;53.17;;;27.40;48.60;;;;;;4950320;28;96542;-54
2022/08/15 03:19:18;;;;;;;64.38;53.03;;;27.40;48.60;;;;;;4953589;28;95576;-55
2022/08/15 03:21:45;;;;;;;64.72;52.75;;;27.30;48.70;;;;;;4957336;28;94815;-54
2022/08/15 03:24:12;;;;;;;64.60;53.20;;;27.40;48.70;;;;;;4953305;28;95389;-54
2022/08/15 03:26:38;;;;;;;64.40;52.83;;;27.40;48.70;;;;;;4950533;28;96926;-52
2022/08/15 03:29:06;;;;;;;65.70;53.10;;;27.30;48.60;;;;;;4945056;28;96127;-53
2022/08/15 03:31:34;;;;;;;65.10;52.95;;;27.40;48.70;;;;;;4946023;28;95924;-52
2022/08/15 03:34:01;;;;;;;64.40;53.00;;;27.30;48.60;;;;;;4958427;28;94356;-55
2022/08/15 03:36:26;;;;;;;64.38;52.78;;;27.40;48.80;;;;;;4950876;28;95604;-55
2022/08/15 03:38:52;;;;;;;64.32;52.90;;;27.30;48.70;;;;;;4954487;28;95316;-55
2022/08/15 03:41:18;;;;;;;64.85;52.85;;;27.40;48.70;;;;;;4946199;28;95600;-54
2022/08/15 03:43:46;;;;;;;65.72;52.88;;;27.30;48.70;;;;;;4951718;28;96753;-53
2022/08/15 03:46:16;;;;;;;65.22;53.03;;;27.30;48.80;;;;;;4941015;28;96859;-55
2022/08/15 03:48:48;;;;;;;64.40;52.72;;;27.30;48.80;;;;;;4945471;28;95160;-54
2022/08/15 03:51:16;;;;;;;63.75;52.58;;;27.30;49.30;;;;;;4943990;28;97313;-55
2022/08/15 03:53:51;;;;;;;64.75;52.75;;;27.30;48.90;;;;;;4952658;28;95094;-55
2022/08/15 03:56:24;;;;;;;64.85;52.78;;;27.30;48.80;;;;;;4946586;28;94794;-54
2022/08/15 03:58:50;;;;;;;65.38;52.92;;;27.30;48.80;;;;;;4950936;28;95376;-51
2022/08/15 04:01:23;;;;;;;64.57;53.05;;;27.30;48.80;;;;;;4943668;28;95637;-52
2022/08/15 04:03:50;;;;;;;64.35;53.08;;;27.30;48.80;;;;;;4951377;28;95084;-52
2022/08/15 04:06:19;;;;;;;65.60;52.63;;;27.30;48.90;;;;;;4954095;28;96248;-53
2022/08/15 04:08:47;;;;;;;64.22;52.70;;;27.30;49.00;;;;;;4952593;28;97106;-53
2022/08/15 04:11:14;;;;;;;63.45;52.58;;;27.30;48.90;;;;;;4948265;28;95217;-55
2022/08/15 04:13:41;;;;;;;63.53;52.63;;;27.20;48.90;;;;;;4952183;28;96061;-54
2022/08/15 04:16:08;;;;;;;64.15;52.83;;;27.30;49.00;;;;;;4945689;28;95561;-52
2022/08/15 04:18:35;;;;;;;64.63;52.75;;;27.30;48.90;;;;;;4959304;28;96229;-52
2022/08/15 04:21:03;;;;;;;64.45;52.85;;;27.30;48.90;;;;;;4951480;28;94560;-54
2022/08/15 04:23:30;;;;;;;64.65;52.88;;;27.20;48.90;;;;;;4955900;28;94326;-53
2022/08/15 04:25:55;;;;;;;63.95;52.97;;;27.20;49.00;;;;;;4949987;28;95894;-55
2022/08/15 04:28:24;;;;;;;64.97;52.78;;;27.20;49.00;;;;;;4947627;28;96542;-55
2022/08/15 04:30:50;;;;;;;64.55;52.72;;;27.20;49.10;;;;;;4949813;28;98075;-54
2022/08/15 04:33:22;;;;;;;64.50;52.72;;;27.20;49.10;;;;;;4952063;28;95009;-55
2022/08/15 04:35:58;;;;;;;63.88;52.75;;;27.20;49.00;;;;;;4948168;28;98331;-55
2022/08/15 04:38:24;;;;;;;64.18;52.63;;;27.20;49.10;;;;;;4953465;28;95629;-52
2022/08/15 04:40:49;;;;;;;64.60;52.97;;;27.20;49.10;;;;;;4950752;28;95215;-55
2022/08/15 04:43:17;;;;;;;64.40;52.75;;;27.20;49.10;;;;;;4947962;28;96104;-54
2022/08/15 04:45:42;;;;;;;65.55;52.72;;;27.20;49.20;;;;;;4948493;28;95405;-55
2022/08/15 04:48:14;;;;;;;64.68;52.85;;;27.10;49.10;;;;;;4951501;28;95024;-53
2022/08/15 04:50:40;;;;;;;64.30;52.42;;;27.20;49.30;;;;;;4951170;28;95942;-56
2022/08/15 04:53:07;;;;;;;64.72;52.85;;;27.20;49.30;;;;;;4950350;28;96136;-54
2022/08/15 04:55:35;;;;;;;63.75;52.63;;;27.10;49.20;;;;;;4948937;28;96055;-55
2022/08/15 04:58:01;;;;;;;64.85;52.67;;;27.20;49.30;;;;;;4941433;28;96038;-54
2022/08/15 05:00:30;;;;;;;64.15;52.95;;;27.10;49.30;;;;;;4939652;28;95989;-55
2022/08/15 05:03:01;;;;;;;64.45;52.67;;;27.10;49.30;;;;;;4940533;28;94910;-53
2022/08/15 05:05:27;;;;;;;64.68;52.70;;;27.10;49.30;;;;;;4937331;28;95418;-53
2022/08/15 05:07:53;;;;;;;63.45;52.55;;;27.20;49.30;;;;;;4945016;28;94965;-53
2022/08/15 05:10:19;;;;;;;65.47;52.88;;;27.10;49.30;;;;;;4943608;28;95284;-55
2022/08/15 05:12:45;;;;;;;63.75;52.90;;;27.10;49.30;;;;;;4947515;28;94997;-53
2022/08/15 05:15:14;;;;;;;65.05;52.92;;;27.10;49.30;;;;;;4948878;28;96072;-55
2022/08/15 05:17:39;;;;;;;64.95;52.65;;;27.10;49.40;;;;;;4946457;28;95723;-55
2022/08/15 05:20:07;;;;;;;64.57;52.58;;;27.10;49.40;;;;;;4946787;28;96456;-54
2022/08/15 05:22:32;;;;;;;64.13;52.67;;;27.10;49.40;;;;;;4946589;28;100874;-51
2022/08/15 05:24:58;;;;;;;63.45;52.58;;;27.10;49.40;;;;;;4937204;28;95379;-55
2022/08/15 05:27:24;;;;;;;64.05;52.78;;;27.10;49.30;;;;;;4934783;28;100168;-55
2022/08/15 05:29:51;;;;;;;64.35;52.38;;;27.10;49.40;;;;;;4940055;28;95932;-54
2022/08/15 05:32:20;;;;;;;63.42;52.53;;;27.10;49.50;;;;;;4938727;28;94896;-52
2022/08/15 05:34:47;;;;;;;64.63;52.72;;;27.10;49.50;;;;;;4942210;28;96479;-55
2022/08/15 05:37:14;;;;;;;63.85;52.70;;;27.10;49.50;;;;;;4955610;28;96466;-55
2022/08/15 05:39:42;;;;;;;65.22;52.90;;;27.10;49.50;;;;;;4955063;28;96523;-53
2022/08/15 05:42:46;;;;;;;63.55;52.65;;;27.10;49.60;;;;;;4948430;28;95547;-55
2022/08/15 05:45:37;;;;;;;63.58;52.55;;;27.10;49.60;;;;;;4954416;28;95884;-55
2022/08/15 05:48:14;;;;;;;63.33;52.47;;;27.10;50.30;;;;;;4951680;28;99701;-52
2022/08/15 05:50:52;;;;;;;64.50;52.65;;;27.10;49.60;;;;;;4952167;28;98628;-53
2022/08/15 05:53:44;;;;;;;64.38;52.63;;;27.10;49.60;;;;;;4956634;28;96156;-54
2022/08/15 05:56:25;;;;;;;64.80;52.70;;;27.10;49.60;;;;;;4945103;28;96026;-53
2022/08/15 05:59:04;;;;;;;63.65;52.50;;;27.10;49.70;;;;;;4945785;28;95103;-53
2022/08/15 06:01:36;;;;;;;63.97;52.55;;;27.10;49.70;;;;;;4945148;28;95890;-53
2022/08/15 06:04:11;;;;;;;64.30;52.75;;;27.10;49.70;;;;;;4947494;28;94237;-53
2022/08/15 06:06:40;;;;;;;63.97;52.92;;;27.10;49.70;;;;;;4951253;28;94977;-54
2022/08/15 06:09:21;;;;;;;64.10;52.83;;;27.20;49.80;;;;;;4950075;28;100169;-54
2022/08/15 06:11:47;;;;;;;64.38;52.67;;;27.20;49.70;;;;;;4958291;28;95778;-52
2022/08/15 06:14:27;;;;;;;65.15;52.60;;;27.20;49.80;;;;;;4946224;28;97383;-53
2022/08/15 06:16:58;;;;;;;64.82;53.33;;;27.20;49.80;;;;;;4947514;28;96746;-54
2022/08/15 06:19:29;;;;;;;64.70;52.88;;;27.10;49.70;;;;;;4947970;28;95125;-55
2022/08/15 06:22:13;;;;;;;65.00;52.78;;;27.20;49.70;;;;;;4953388;28;95814;-52
2022/08/15 06:24:56;;;;;;;63.40;52.47;;;27.20;49.60;;;;;;4945115;28;95005;-55
2022/08/15 06:27:39;;;;;;;63.97;52.70;;;27.20;49.40;;;;;;4953463;28;95366;-55
2022/08/15 06:30:08;;;;;;;64.47;52.92;;;27.20;49.50;;;;;;4955772;28;95099;-54
2022/08/15 06:32:47;;;;;;;63.60;52.55;;;27.20;49.40;;;;;;4949506;28;100255;-55
2022/08/15 06:35:28;;;;;;;63.70;52.53;;;27.20;49.20;;;;;;4951180;28;99968;-54
2022/08/15 06:38:11;;;;;;;64.32;52.85;;;27.20;49.20;;;;;;4946485;28;96783;-52
2022/08/15 06:40:55;;;;;;;64.70;52.70;;;27.30;49.20;;;;;;4950282;28;95086;-54
2022/08/15 06:43:20;;;;;;;64.28;52.78;;;27.30;49.10;;;;;;4955505;28;95701;-54
2022/08/15 06:45:49;;;;;;;65.32;52.92;;;27.20;49.10;;;;;;4955628;28;96580;-55
2022/08/15 06:48:36;;;;;;;63.63;52.47;;;27.20;49.00;;;;;;4955070;28;96214;-55
2022/08/15 06:51:05;;;;;;;64.18;52.67;;;27.30;49.10;;;;;;4945049;28;97000;-53
2022/08/15 06:53:39;;;;;;;65.28;52.97;;;27.30;49.10;;;;;;4942723;28;96100;-55
2022/08/15 06:56:05;;;;;;;64.53;53.05;;;27.30;49.10;;;;;;4947578;28;94686;-55
2022/08/15 06:58:57;;;;;;;65.10;52.85;;;27.40;49.10;;;;;;4945959;28;96417;-53
2022/08/15 07:02:10;;;;;;;65.05;52.95;;;27.30;49.10;;;;;;4940895;28;99058;-53
2022/08/15 07:05:17;;;;;;;64.38;53.03;;;27.40;49.20;;;;;;4902089;28;98135;-54
2022/08/15 07:08:01;;;;;;;64.97;52.83;;;27.40;49.10;;;;;;4949506;28;100595;-54
2022/08/15 07:10:46;;;;;;;65.95;53.25;;;27.40;49.20;;;;;;4946393;28;101582;-50
2022/08/15 07:13:22;;;;;;;64.22;52.90;;;27.40;49.20;;;;;;4946977;28;96021;-51
2022/08/15 07:16:16;;;;;;;65.85;53.33;;;27.40;49.20;;;;;;4950705;28;99848;-52
2022/08/15 07:18:50;;;;;;;65.75;53.30;;;27.40;49.20;;;;;;4943426;28;95317;-51
2022/08/15 07:21:20;;;;;;;64.63;53.22;;;27.40;49.30;;;;;;4952826;28;96332;-54
2022/08/15 07:23:58;;;;;;;65.07;53.28;;;27.40;49.30;;;;;;4950988;28;95032;-53
2022/08/15 07:26:27;;;;;;;65.65;53.45;;;27.40;49.40;;;;;;4955373;28;95158;-51
2022/08/15 07:28:56;;;;;;;65.18;53.28;;;27.40;49.40;;;;;;4950511;28;99307;-55
2022/08/15 07:31:33;;;;;;;65.30;53.53;;;27.40;49.40;;;;;;4943238;28;96122;-55
2022/08/15 07:34:05;;;;;;;65.40;53.20;;;27.50;49.40;;;;;;4948121;28;95729;-54
2022/08/15 07:36:34;;;;;;;64.68;53.28;;;27.50;49.40;;;;;;4954583;28;96158;-53
2022/08/15 07:39:19;;;;;;;66.07;53.47;;;27.50;49.30;;;;;;4944513;28;95315;-51
2022/08/15 07:41:45;;;;;;;65.28;53.30;;;27.60;49.30;;;;;;4946049;28;94872;-55
2022/08/15 07:44:19;;;;;;;65.68;53.72;;;27.60;49.20;;;;;;4949747;28;94954;-53
2022/08/15 07:47:00;;;;;;;64.70;53.30;;;27.60;49.30;;;;;;4945599;28;100477;-54
2022/08/15 07:49:31;;;;;;;65.80;53.55;;;27.60;49.40;;;;;;4952639;28;94494;-52
2022/08/15 07:52:15;;;;;;;67.28;54.10;;;27.60;49.40;;;;;;4953720;28;95038;-54
2022/08/15 07:54:51;;;;;;;65.45;53.60;;;27.60;49.40;;;;;;4950533;28;95481;-53
2022/08/15 07:57:27;;;;;;;67.25;53.70;;;27.70;49.40;;;;;;4953047;28;97092;-54
2022/08/15 08:00:14;;;;;;;65.45;53.75;;;27.70;49.30;;;;;;4947357;28;95026;-54
2022/08/15 08:02:54;;;;;;;66.43;53.50;;;27.80;49.30;;;;;;4952018;28;97063;-55
2022/08/15 08:05:25;;;;;;;65.82;53.58;;;27.80;49.30;;;;;;4949359;28;94974;-54
2022/08/15 08:07:53;;;;;;;66.07;53.40;;;27.80;49.30;;;;;;4950584;28;95586;-52
2022/08/15 08:10:24;;;;;;;68.85;53.75;;;27.90;49.40;;;;;;4955717;28;95136;-55
2022/08/15 08:13:18;;;;;;;65.68;53.55;;;27.80;49.40;;;;;;4951133;28;95960;-52
2022/08/15 08:16:04;;;;;;;67.15;53.75;;;27.90;49.30;;;;;;4947362;28;95147;-53
2022/08/15 08:19:12;;;;;;;65.90;53.85;;;27.90;49.40;;;;;;4935032;28;94968;-51
2022/08/15 08:21:51;;;;;;;71.57;55.53;;;27.80;49.50;;;;;;4947703;28;95173;-55
2022/08/15 08:24:50;;;;;;;70.65;55.50;;;27.80;50.90;;;;;;4946183;28;99098;-54
2022/08/15 08:27:22;;;;;;;69.05;55.42;;;27.70;51.90;;;;;;4946210;28;96485;-54
2022/08/15 08:30:02;;;;;;;69.32;55.60;;;27.50;52.40;;;;;;4950140;28;94695;-53
2022/08/15 08:32:31;;;;;;;69.03;54.92;;;27.40;53.00;;;;;;4944336;28;95553;-55
2022/08/15 08:35:05;;;;;;;69.20;55.20;;;27.40;53.40;;;;;;4937020;28;95463;-55
2022/08/15 08:37:49;;;;;;;67.45;55.25;;;27.40;53.70;;;;;;4941751;28;97592;-53
2022/08/15 08:43:46;;;;;;;67.65;54.97;;;27.40;53.90;;;;;;4948841;28;101066;-54
2022/08/15 08:46:40;;;;;;;69.15;54.65;;;27.40;53.70;;;;;;4941945;28;96978;-55
2022/08/15 08:49:12;;;;;;;69.78;55.55;;;27.40;53.90;;;;;;4945995;28;97096;-55
2022/08/15 08:51:51;;;;;;;66.78;54.63;;;27.40;53.90;;;;;;4946790;28;96655;-55
2022/08/15 08:54:26;;;;;;;68.40;54.80;;;27.40;54.20;;;;;;4955141;28;95058;-54
2022/08/15 08:56:55;;;;;;;69.32;55.15;;;27.40;54.10;;;;;;4944845;28;96161;-53
2022/08/15 08:59:36;;;;;;;68.22;55.47;;;27.40;54.40;;;;;;4947787;28;94839;-54
2022/08/15 09:02:17;;;;;;;70.40;55.20;;;27.50;54.50;;;;;;4950341;28;98917;-54
2022/08/15 09:04:52;;;;;;;68.32;55.30;;;27.50;54.10;;;;;;4948407;28;95132;-52
2022/08/15 09:07:25;;;;;;;69.57;55.03;;;27.50;54.10;;;;;;4947377;28;96186;-52
2022/08/15 09:09:52;;;;;;;67.07;54.90;;;27.50;53.50;;;;;;4938909;28;94960;-54
2022/08/15 09:15:19;;;;;;;68.28;55.72;;;27.60;53.20;;;;;;4955473;28;94833;-53
2022/08/15 09:17:51;;;;;;;71.68;55.88;;;27.60;53.20;;;;;;4938283;28;102353;-51
2022/08/15 09:20:24;;;;;;;71.28;55.22;;;27.60;53.40;;;;;;4951177;28;95062;-51
2022/08/15 09:22:50;;;;;;;68.53;55.47;;;27.60;53.00;;;;;;4948884;28;95485;-55
2022/08/15 09:25:18;;;;;;;68.97;55.40;;;27.70;53.40;;;;;;4956284;28;94754;-53
2022/08/15 09:28:09;;;;;;;70.57;54.95;;;27.70;53.30;;;;;;4949299;28;95398;-52
2022/08/15 09:30:35;;;;;;;69.18;55.28;;;27.70;53.50;;;;;;4947163;28;96113;-54
2022/08/15 09:33:13;;;;;;;70.22;55.55;;;27.70;53.30;;;;;;4947950;28;94941;-53
2022/08/15 09:35:45;;;;;;;68.43;55.33;;;27.70;54.30;;;;;;4956162;28;94329;-51
2022/08/15 09:38:14;;;;;;;70.18;55.67;;;27.80;53.80;;;;;;4947479;28;95311;-52
2022/08/15 09:40:58;;;;;;;69.32;55.45;;;27.80;53.80;;;;;;4945252;28;95241;-54
2022/08/15 09:43:42;;;;;;;72.72;55.95;;;27.90;53.60;;;;;;4948497;28;96400;-54
2022/08/15 09:46:38;;;;;;;73.00;55.60;;;27.90;53.40;;;;;;4953180;28;96059;-52
2022/08/15 09:49:13;;;;;;;69.75;55.60;;;27.90;53.30;;;;;;4945202;28;100849;-54
2022/08/15 09:52:24;;;;;;;68.95;55.97;;;28.00;53.20;;;;;;4944459;28;96961;-57
2022/08/15 09:54:58;;;;;;;;;;;28.10;52.60;;;;;;4923464;28;95318;-53
2022/08/15 09:57:38;;;;;;;73.07;55.45;;;28.20;52.80;;;;;;4949258;28;95039;-48
2022/08/15 10:00:15;;;;;;;71.70;55.67;;;28.10;52.70;;;;;;4947613;28;95695;-50
2022/08/15 10:02:44;;;;;;;70.88;55.78;;;28.20;52.80;;;;;;4945873;28;95301;-50
2022/08/15 10:05:47;;;;;;;71.90;56.10;;;28.20;52.80;;;;;;4950168;28;96118;-53
2022/08/15 10:08:14;;;;;;;70.88;56.13;;;28.20;52.60;;;;;;4947379;28;96074;-49
2022/08/15 10:10:47;;;;;;;71.10;55.88;;;28.30;52.10;;;;;;4951229;28;96890;-51
2022/08/15 10:13:26;;;;;;;69.80;55.58;;;28.30;51.40;;;;;;4952773;28;96966;-51
2022/08/15 10:15:53;;;;;;;70.35;55.63;;;28.20;52.30;;;;;;4960217;28;95336;-47
2022/08/15 10:18:22;;;;;;;70.18;55.88;;;28.20;52.30;;;;;;4949566;28;95283;-51
2022/08/15 10:20:51;;;;;;;70.45;56.03;;;28.20;52.10;;;;;;4951931;28;94725;-50
2022/08/15 10:23:24;;;;;;;70.60;56.38;;;28.30;51.60;;;;;;4948764;28;96014;-47
2022/08/15 10:26:27;;;;;;;69.90;56.28;;;28.20;51.30;;;;;;4947089;28;95372;-48
2022/08/15 10:29:12;;;;;;;71.50;55.83;;;28.20;51.80;;;;;;4956849;28;94431;-51
2022/08/15 10:31:37;;;;;;;70.30;55.85;;;28.20;52.60;;;;;;4957449;28;95615;-51
2022/08/15 10:34:03;;;;;;;71.82;55.75;;;28.30;51.80;;;;;;4959021;28;94797;-51
2022/08/15 10:36:35;;;;;;;69.57;55.60;;;28.20;51.80;;;;;;4954304;28;95975;-52
2022/08/15 10:39:16;;;;;;;69.70;55.42;;;28.30;51.30;;;;;;4951926;28;94650;-51
2022/08/15 10:42:11;;;;;;;68.82;56.33;;;28.30;51.70;;;;;;4947961;28;94837;-49
2022/08/15 10:44:47;;;;;;;70.05;55.97;;;28.30;51.60;;;;;;4952241;28;97497;-49
2022/08/15 10:47:50;;;;;;;71.57;55.83;;;28.40;51.10;;;;;;4943607;28;95912;-49
2022/08/15 10:50:33;;;;;;;72.38;55.67;;;28.40;51.40;;;;;;4878314;28;96495;-49
2022/08/15 10:53:24;;;;;;;69.38;55.72;;;28.40;51.20;;;;;;4944354;28;97000;-52
2022/08/15 10:55:49;;;;;;;69.20;55.53;;;28.40;50.40;;;;;;4949737;28;96383;-52
2022/08/15 10:58:22;;;;;;;70.43;55.58;;;28.30;50.20;;;;;;4957316;28;94765;-47
2022/08/15 11:01:04;;;;;;;68.90;55.47;;;28.40;47.70;;;;;;4950368;28;94724;-49
2022/08/15 11:03:45;;;;;;;70.68;55.83;;;28.10;48.80;;;;;;4940561;28;98604;-49
2022/08/15 11:06:14;;;;;;;70.97;55.95;;;28.10;50.00;;;;;;4946110;28;95600;-48
2022/08/15 11:09:12;;;;;;;69.53;55.67;;;28.20;50.00;;;;;;4951639;28;94753;-48
2022/08/15 11:12:14;;;;;;;71.00;55.40;;;28.20;50.00;;;;;;4949626;28;94867;-47
2022/08/15 11:14:45;;;;;;;73.07;55.40;;;28.20;49.20;;;;;;4946120;28;100235;-48
2022/08/15 11:17:19;;;;;;;69.95;56.00;;;28.10;49.90;;;;;;4949882;28;95726;-48
2022/08/15 11:19:50;;;;;;;69.35;55.38;;;28.10;49.80;;;;;;4938149;28;99536;-51
2022/08/15 11:22:49;;;;;;;67.15;55.28;;;28.10;49.50;;;;;;4949484;28;93982;-50
2022/08/15 11:25:20;;;;;;;68.35;55.67;;;28.10;49.20;;;;;;4939698;28;98552;-48
2022/08/15 11:28:03;;;;;;;69.10;55.60;;;28.10;48.90;;;;;;4946505;28;97403;-51
2022/08/15 11:30:34;;;;;;;69.13;55.33;;;28.10;48.70;;;;;;4940681;28;100367;-50
2022/08/15 11:33:18;;;;;;;;;;;28.00;48.70;;;;;;4945248;28;95235;-51
2022/08/15 11:35:44;;;;;;;67.25;55.15;;;28.00;48.70;;;;;;4946566;28;95097;-52
2022/08/15 11:38:12;;;;;;;73.10;55.70;;;28.00;48.30;;;;;;4947041;28;99639;-48
2022/08/15 11:40:41;;;;;;;70.68;55.55;;;28.00;48.00;;;;;;4943122;28;94897;-48
2022/08/15 11:43:15;;;;;;;71.03;55.58;;;27.90;48.30;;;;;;4930401;28;96028;-52
2022/08/15 11:45:45;;;;;;;68.18;55.20;;;28.00;48.40;;;;;;4941801;28;95204;-49
2022/08/15 11:48:17;;;;;;;68.53;55.35;;;27.90;48.50;;;;;;4942909;28;94495;-48
2022/08/15 11:51:06;;;;;;;68.90;55.25;;;27.90;48.70;;;;;;4939520;28;97840;-49
2022/08/15 11:53:40;;;;;;;71.50;54.80;;;28.00;48.70;;;;;;4945626;28;99418;-51
2022/08/15 11:56:07;;;;;;;70.25;54.65;;;28.00;48.70;;;;;;4947448;28;96392;-49
2022/08/15 11:58:38;;;;;;;67.63;54.88;;;28.00;48.30;;;;;;4941451;28;95793;-48
2022/08/15 12:01:28;;;;;;;68.28;54.72;;;27.90;48.50;;;;;;4945836;28;95125;-49
2022/08/15 12:04:00;;;;;;;68.67;54.93;;;27.90;48.20;;;;;;4943452;28;95250;-51
2022/08/15 12:06:29;;;;;;;72.68;55.58;;;28.00;48.30;;;;;;4942539;28;94853;-50
2022/08/15 12:09:19;;;;;;;71.32;56.28;;;28.00;48.20;;;;;;4947366;28;96390;-52
2022/08/15 12:11:48;;;;;;;69.00;55.53;;;28.00;48.40;;;;;;4944681;28;95942;-49
2022/08/15 12:14:19;;;;;;;73.30;56.15;;;28.00;48.30;;;;;;4943588;28;94823;-49
2022/08/15 12:16:53;;;;;;;68.63;55.17;;;28.00;47.90;;;;;;4943432;28;97885;-51
2022/08/15 12:19:47;;;;;;;69.43;55.30;;;27.90;48.20;;;;;;4946420;28;95907;-48
2022/08/15 12:22:27;;;;;;;71.43;55.72;;;27.90;48.30;;;;;;4940357;28;96255;-51
2022/08/15 12:24:53;;;;;;;74.28;56.40;;;27.90;48.30;;;;;;4951860;28;95031;-52
2022/08/15 12:27:20;;;;;;;71.25;55.70;;;27.90;48.60;;;;;;4943218;28;96835;-49
2022/08/15 12:29:45;;;;;;;72.43;55.45;;;27.90;48.60;;;;;;4949046;28;98660;-48
2022/08/15 12:32:12;;;;;;;70.70;55.72;;;27.90;48.70;;;;;;4947766;28;96240;-50
2022/08/15 12:34:39;;;;;;;77.20;56.13;;;28.00;48.70;;;;;;4941732;28;95740;-51
2022/08/15 12:37:09;;;;;;;70.93;55.80;;;28.00;48.60;;;;;;4947138;28;96300;-51
2022/08/15 12:39:38;;;;;;;72.63;55.65;;;28.00;48.40;;;;;;4950178;28;94680;-50
2022/08/15 12:42:04;;;;;;;71.32;55.13;;;28.00;48.30;;;;;;4927638;28;95295;-50
2022/08/15 12:44:35;;;;;;;69.35;55.30;;;28.00;48.30;;;;;;4928008;28;96786;-51
2022/08/15 12:47:01;;;;;;;72.40;56.10;;;27.90;48.40;;;;;;4927231;28;97355;-51
2022/08/15 12:49:27;;;;;;;69.13;55.08;;;27.90;48.30;;;;;;4928562;28;97649;-52
2022/08/15 12:51:52;;;;;;;75.93;55.38;;;27.90;48.20;;;;;;4935158;28;94711;-49
2022/08/15 12:54:18;;;;;;;70.13;55.10;;;28.00;48.10;;;;;;4933209;28;95704;-53
2022/08/15 12:56:44;;;;;;;69.78;55.90;;;27.90;47.90;;;;;;4935231;28;97050;-49
2022/08/15 12:59:12;;;;;;;71.03;56.20;;;28.00;47.70;;;;;;4935594;28;96324;-52
2022/08/15 13:01:40;;;;;;;71.35;55.28;;;28.00;47.70;;;;;;4937615;28;94717;-51
2022/08/15 13:04:10;;;;;;;72.22;56.20;;;27.90;48.00;;;;;;4931733;28;95888;-54
2022/08/15 13:06:55;;;;;;;71.53;55.53;;;27.90;47.90;;;;;;4931281;28;96557;-50
2022/08/15 13:09:24;;;;;;;72.03;55.63;;;27.90;47.70;;;;;;4937642;28;96966;-56